Time;durP1;ratioP1;P1;durP2;ratioP2;P2;SDS_P1;SDS_P2;PMS_P1;PMS_P2;Temp;Humidity;BMP_temperature;BMP_pressure;BME280_temperature;BME280_humidity;BME280_pressure;Samples;Min_cycle;Max_cycle;Signal;HPM_P1;HPM_P2
2022/02/26 00:00:08;;;;;;;24.88;3.38;;;2.60;81.90;;;;;;4992345;28;20065;-71
2022/02/26 00:02:35;;;;;;;27.48;3.67;;;2.60;82.00;;;;;;4993397;28;20050;-71
2022/02/26 00:05:04;;;;;;;18.83;3.75;;;2.60;82.10;;;;;;4995683;28;20130;-70
2022/02/26 00:07:31;;;;;;;21.52;3.65;;;2.60;82.00;;;;;;4995504;28;20074;-70
2022/02/26 00:10:00;;;;;;;16.92;3.63;;;2.60;82.00;;;;;;4995581;28;20042;-71
2022/02/26 00:12:28;;;;;;;23.80;3.17;;;2.50;82.10;;;;;;4994346;28;20394;-70
2022/02/26 00:14:56;;;;;;;29.95;3.88;;;2.50;82.20;;;;;;4995754;28;20050;-70
2022/02/26 00:17:24;;;;;;;21.85;4.28;;;2.40;82.20;;;;;;4996377;28;20042;-70
2022/02/26 00:19:51;;;;;;;16.70;3.78;;;2.30;82.30;;;;;;4994340;28;20049;-71
2022/02/26 00:22:19;;;;;;;26.10;4.32;;;2.30;82.40;;;;;;4994269;28;20053;-71
2022/02/26 00:24:46;;;;;;;27.63;4.30;;;2.30;82.50;;;;;;4995310;28;20049;-71
2022/02/26 00:27:14;;;;;;;13.95;3.70;;;2.40;82.60;;;;;;4995166;28;20061;-71
2022/02/26 00:29:42;;;;;;;17.98;3.58;;;2.40;82.70;;;;;;4995181;28;20408;-71
2022/02/26 00:32:10;;;;;;;21.90;3.72;;;2.40;82.70;;;;;;4995431;28;20054;-72
2022/02/26 00:34:38;;;;;;;26.80;3.58;;;2.50;82.60;;;;;;4995431;28;20416;-71
2022/02/26 00:37:07;;;;;;;17.50;3.45;;;2.50;82.80;;;;;;4995140;28;20034;-71
2022/02/26 00:39:35;;;;;;;21.45;3.38;;;2.60;83.00;;;;;;4994820;28;20054;-71
2022/02/26 00:42:02;;;;;;;23.05;3.92;;;2.60;83.00;;;;;;4993649;28;20054;-71
2022/02/26 00:44:30;;;;;;;24.52;3.80;;;2.60;83.00;;;;;;4994952;28;20053;-71
2022/02/26 00:50:11;;;;;;;24.88;3.85;;;2.50;83.00;;;;;;5219017;23;20025;-69
2022/02/26 00:52:39;;;;;;;21.48;2.97;;;2.40;82.90;;;;;;4798051;29;20062;-70
2022/02/26 00:55:07;;;;;;;19.48;3.90;;;2.30;83.00;;;;;;4806892;29;20420;-70
2022/02/26 00:57:36;;;;;;;18.67;3.50;;;2.20;83.20;;;;;;4806836;29;20051;-71
2022/02/26 01:00:09;;;;;;;17.98;3.20;;;2.10;83.30;;;;;;4820702;29;20055;-70
2022/02/26 01:02:37;;;;;;;20.30;4.15;;;2.10;83.60;;;;;;4807217;29;20366;-71
2022/02/26 01:05:05;;;;;;;25.80;3.40;;;2.10;83.90;;;;;;4806264;29;20051;-71
2022/02/26 01:07:33;;;;;;;16.10;3.13;;;2.20;84.00;;;;;;4805804;29;20066;-70
2022/02/26 01:10:01;;;;;;;26.25;3.45;;;2.20;84.10;;;;;;4806655;29;20485;-71
2022/02/26 01:12:29;;;;;;;25.60;3.28;;;2.20;83.90;;;;;;4805171;29;20382;-71
2022/02/26 01:14:57;;;;;;;21.42;3.42;;;2.10;83.90;;;;;;4805666;29;20078;-71
2022/02/26 01:17:25;;;;;;;25.92;3.70;;;2.00;84.00;;;;;;4806434;29;20209;-71
2022/02/26 01:19:53;;;;;;;23.08;3.83;;;2.00;84.10;;;;;;4806415;29;20051;-71
2022/02/26 01:22:21;;;;;;;26.42;4.00;;;1.90;84.10;;;;;;4806454;29;20061;-71
2022/02/26 01:24:49;;;;;;;21.45;3.53;;;1.80;84.20;;;;;;4806614;29;20081;-71
2022/02/26 01:27:16;;;;;;;20.77;4.00;;;1.80;84.20;;;;;;4775504;29;20051;-71
2022/02/26 01:29:44;;;;;;;22.58;3.58;;;1.70;84.40;;;;;;4806390;29;20042;-71
2022/02/26 01:32:12;;;;;;;20.23;4.38;;;1.60;84.50;;;;;;4806401;29;20055;-71
2022/02/26 01:34:40;;;;;;;21.70;4.10;;;1.50;84.60;;;;;;4804476;29;20465;-71
2022/02/26 01:37:07;;;;;;;29.98;4.70;;;1.50;84.70;;;;;;4805158;29;20509;-71
2022/02/26 01:39:35;;;;;;;23.77;4.03;;;1.50;84.80;;;;;;4805977;29;20058;-71
2022/02/26 01:42:03;;;;;;;24.50;4.03;;;1.50;84.90;;;;;;4806128;29;20066;-71
2022/02/26 01:44:36;;;;;;;24.85;4.68;;;1.50;84.90;;;;;;4806167;29;20066;-71
2022/02/26 01:47:06;;;;;;;23.42;4.63;;;1.50;84.90;;;;;;4806234;29;20051;-71
2022/02/26 01:49:33;;;;;;;24.02;4.47;;;1.50;85.00;;;;;;4804446;29;20055;-71
2022/02/26 01:52:01;;;;;;;18.85;3.97;;;1.50;85.00;;;;;;4800032;29;20512;-71
2022/02/26 01:54:30;;;;;;;24.98;4.38;;;1.50;85.10;;;;;;4806026;29;20054;-71
2022/02/26 01:56:59;;;;;;;23.42;4.20;;;1.40;85.10;;;;;;4805950;29;20058;-71
2022/02/26 01:59:27;;;;;;;27.67;4.22;;;1.40;85.20;;;;;;4805942;29;20065;-71
2022/02/26 02:01:55;;;;;;;29.38;5.13;;;1.40;85.20;;;;;;4805547;29;20058;-71
2022/02/26 02:04:23;;;;;;;23.60;4.47;;;1.50;85.30;;;;;;4805771;29;20504;-71
2022/02/26 02:06:51;;;;;;;25.55;4.60;;;1.50;85.30;;;;;;4804884;29;20078;-71
2022/02/26 02:09:19;;;;;;;27.45;5.60;;;1.50;85.40;;;;;;4806772;29;20450;-71
2022/02/26 02:11:49;;;;;;;25.67;4.72;;;1.60;85.40;;;;;;4805721;29;20078;-71
2022/02/26 02:14:17;;;;;;;26.00;5.05;;;1.60;85.40;;;;;;4805693;29;20050;-72
2022/02/26 02:16:44;;;;;;;25.23;5.05;;;1.70;85.50;;;;;;4804210;29;20059;-71
2022/02/26 02:19:12;;;;;;;29.70;5.15;;;1.70;85.40;;;;;;4819632;29;20062;-71
2022/02/26 02:21:40;;;;;;;31.67;4.82;;;1.80;85.40;;;;;;4789446;29;20070;-71
2022/02/26 02:24:08;;;;;;;19.23;4.50;;;1.80;85.40;;;;;;4819620;29;20047;-71
2022/02/26 02:26:35;;;;;;;30.00;5.07;;;1.80;85.50;;;;;;4805453;29;20077;-70
2022/02/26 02:29:04;;;;;;;24.77;5.47;;;1.80;85.40;;;;;;4805475;29;20505;-71
2022/02/26 02:31:32;;;;;;;21.30;5.07;;;1.80;85.50;;;;;;4805314;29;20090;-71
2022/02/26 02:34:00;;;;;;;27.95;5.65;;;1.80;85.50;;;;;;4805338;29;20050;-71
2022/02/26 02:36:28;;;;;;;27.45;6.60;;;1.80;85.60;;;;;;4800557;29;20059;-70
2022/02/26 02:38:56;;;;;;;28.45;6.38;;;1.80;85.60;;;;;;4800733;29;20513;-71
2022/02/26 02:41:23;;;;;;;26.35;5.32;;;1.80;85.70;;;;;;4787173;30;20410;-71
2022/02/26 02:43:51;;;;;;;23.88;5.50;;;1.80;85.80;;;;;;4787209;30;20409;-71
2022/02/26 02:46:21;;;;;;;22.15;6.00;;;1.70;85.90;;;;;;4796159;29;20059;-71
2022/02/26 02:48:48;;;;;;;28.00;5.35;;;1.70;85.90;;;;;;4805071;29;20440;-71
2022/02/26 02:51:16;;;;;;;30.25;5.68;;;1.70;85.90;;;;;;4803945;29;20548;-71
2022/02/26 02:53:43;;;;;;;27.17;6.40;;;1.70;86.00;;;;;;4804634;29;20062;-71
2022/02/26 02:56:11;;;;;;;32.80;5.95;;;1.70;86.10;;;;;;4804885;29;20404;-71
2022/02/26 02:58:39;;;;;;;26.80;6.00;;;1.70;86.20;;;;;;4805100;29;20136;-70
2022/02/26 03:01:07;;;;;;;20.10;5.15;;;1.70;86.30;;;;;;4803848;29;20067;-71
2022/02/26 03:03:34;;;;;;;22.70;5.00;;;1.70;86.40;;;;;;4805160;29;20063;-71
2022/02/26 03:06:03;;;;;;;25.70;5.07;;;1.70;86.40;;;;;;4805044;29;20512;-71
2022/02/26 03:08:30;;;;;;;27.63;6.10;;;1.70;86.50;;;;;;4805143;29;20540;-71
2022/02/26 03:10:58;;;;;;;23.20;5.20;;;1.60;86.60;;;;;;4805263;29;20055;-71
2022/02/26 03:13:27;;;;;;;28.30;6.07;;;1.60;86.60;;;;;;4805249;29;20058;-71
2022/02/26 03:15:57;;;;;;;30.65;5.80;;;1.60;86.70;;;;;;4804875;29;20058;-70
2022/02/26 03:18:25;;;;;;;24.58;5.82;;;1.60;86.70;;;;;;4803852;29;20062;-71
2022/02/26 03:20:53;;;;;;;23.05;5.80;;;1.50;86.80;;;;;;4804895;29;20055;-70
2022/02/26 03:23:21;;;;;;;25.30;6.80;;;1.50;86.90;;;;;;4818827;29;20042;-71
2022/02/26 03:25:49;;;;;;;25.30;5.72;;;1.40;86.90;;;;;;4805003;29;20481;-71
2022/02/26 03:28:16;;;;;;;23.25;5.20;;;1.30;86.90;;;;;;4803738;29;20058;-71
2022/02/26 03:30:44;;;;;;;32.05;5.78;;;1.30;87.00;;;;;;4804599;29;20057;-71
2022/02/26 03:33:12;;;;;;;21.33;5.65;;;1.30;87.10;;;;;;4804430;29;20050;-71
2022/02/26 03:35:41;;;;;;;37.67;6.90;;;1.30;87.10;;;;;;4804826;29;20402;-71
2022/02/26 03:38:10;;;;;;;34.65;6.15;;;1.20;87.20;;;;;;4805213;29;20067;-71
2022/02/26 03:40:39;;;;;;;29.10;5.50;;;1.20;87.30;;;;;;4808382;29;20051;-71
2022/02/26 03:43:08;;;;;;;24.90;6.53;;;1.10;87.40;;;;;;4808200;29;20054;-71
2022/02/26 03:45:37;;;;;;;28.80;6.28;;;1.10;87.40;;;;;;4808217;29;20405;-71
2022/02/26 03:48:05;;;;;;;36.47;6.60;;;1.10;87.60;;;;;;4808026;29;20142;-71
2022/02/26 03:50:33;;;;;;;27.15;7.05;;;1.00;87.60;;;;;;4807823;29;20532;-71
2022/02/26 03:53:00;;;;;;;32.20;6.63;;;1.10;87.70;;;;;;4806309;29;20065;-71
2022/02/26 03:55:28;;;;;;;20.92;6.05;;;1.10;87.70;;;;;;4821698;29;20066;-71
2022/02/26 03:57:56;;;;;;;30.75;7.20;;;1.10;87.70;;;;;;4807991;29;20078;-71
2022/02/26 04:00:24;;;;;;;31.73;6.10;;;1.20;87.80;;;;;;4821580;29;20047;-70
2022/02/26 04:02:51;;;;;;;30.85;7.43;;;1.20;87.70;;;;;;4807813;29;20062;-71
2022/02/26 04:05:20;;;;;;;24.35;6.80;;;1.20;87.80;;;;;;4807905;29;20507;-71
2022/02/26 04:07:47;;;;;;;27.15;6.32;;;1.30;87.90;;;;;;4807960;29;20401;-71
2022/02/26 04:10:15;;;;;;;23.10;6.50;;;1.20;87.90;;;;;;4807553;29;20058;-71
2022/02/26 04:12:44;;;;;;;29.95;6.43;;;1.30;87.90;;;;;;4807651;29;20059;-70
2022/02/26 04:15:12;;;;;;;23.63;7.05;;;1.30;87.90;;;;;;4807525;29;20486;-71
2022/02/26 04:17:40;;;;;;;28.15;7.20;;;1.30;87.90;;;;;;4807801;29;20527;-70
2022/02/26 04:20:09;;;;;;;21.95;5.97;;;1.30;88.00;;;;;;4808515;29;20524;-70
2022/02/26 04:22:37;;;;;;;31.08;6.13;;;1.30;88.10;;;;;;4806590;29;20054;-70
2022/02/26 04:25:05;;;;;;;30.27;6.88;;;1.30;88.20;;;;;;4807644;29;20417;-70
2022/02/26 04:27:33;;;;;;;31.88;6.35;;;1.30;88.10;;;;;;4807328;29;20054;-71
2022/02/26 04:30:01;;;;;;;25.10;6.88;;;1.20;88.10;;;;;;4821020;29;20061;-71
2022/02/26 04:32:44;;;;;;;30.95;6.40;;;1.20;88.20;;;;;;4807424;29;20065;-70
2022/02/26 04:35:12;;;;;;;31.80;7.50;;;1.10;88.20;;;;;;4806981;29;20066;-70
2022/02/26 04:37:40;;;;;;;36.33;6.68;;;1.10;88.30;;;;;;4820971;29;20051;-70
2022/02/26 04:40:10;;;;;;;32.40;7.05;;;1.00;88.30;;;;;;4807360;29;20055;-70
2022/02/26 04:42:38;;;;;;;30.48;6.70;;;1.00;88.50;;;;;;4807416;29;20054;-70
2022/02/26 04:45:07;;;;;;;29.23;6.40;;;0.90;88.50;;;;;;4807190;29;20405;-71
2022/02/26 04:47:35;;;;;;;39.40;7.30;;;1.00;88.50;;;;;;4807597;29;20054;-70
2022/02/26 04:50:05;;;;;;;34.28;7.45;;;0.90;88.60;;;;;;4806103;29;20063;-70
2022/02/26 04:52:33;;;;;;;31.42;6.88;;;1.00;88.70;;;;;;4806805;29;20059;-70
2022/02/26 04:55:01;;;;;;;29.98;6.45;;;1.00;88.60;;;;;;4806148;29;20055;-71
2022/02/26 04:57:28;;;;;;;37.85;7.78;;;1.00;88.60;;;;;;4805574;29;20405;-71
2022/02/26 04:59:58;;;;;;;24.48;6.72;;;1.00;88.70;;;;;;4806706;29;20061;-71
2022/02/26 05:02:26;;;;;;;22.98;6.57;;;1.00;88.70;;;;;;4806726;29;20058;-72
2022/02/26 05:04:54;;;;;;;27.55;7.20;;;1.10;88.80;;;;;;4806342;29;20066;-71
2022/02/26 05:07:23;;;;;;;41.80;7.95;;;1.20;89.00;;;;;;4806853;29;20496;-71
2022/02/26 05:09:51;;;;;;;38.28;7.38;;;1.20;88.80;;;;;;4806812;29;20050;-71
2022/02/26 05:12:19;;;;;;;27.10;6.47;;;1.20;88.80;;;;;;4806433;29;20061;-71
2022/02/26 05:14:46;;;;;;;47.40;8.32;;;1.20;88.80;;;;;;4805270;29;20064;-72
2022/02/26 05:17:14;;;;;;;28.27;7.32;;;1.20;88.80;;;;;;4807158;29;20062;-72
2022/02/26 05:19:41;;;;;;;31.17;6.60;;;1.20;88.80;;;;;;4806612;29;20402;-71
2022/02/26 05:22:09;;;;;;;28.70;6.18;;;1.20;88.90;;;;;;4806582;29;20054;-72
2022/02/26 05:24:37;;;;;;;31.25;7.30;;;1.20;88.90;;;;;;4805233;29;20055;-71
2022/02/26 05:27:06;;;;;;;25.10;6.30;;;1.20;88.90;;;;;;4806262;29;20059;-71
2022/02/26 05:29:34;;;;;;;32.67;6.72;;;1.10;88.80;;;;;;4806394;29;20508;-70
2022/02/26 05:32:02;;;;;;;28.23;6.68;;;1.10;88.90;;;;;;4806381;29;20078;-71
2022/02/26 05:34:32;;;;;;;32.38;7.35;;;1.00;88.90;;;;;;4806358;29;20062;-71
2022/02/26 05:37:00;;;;;;;41.90;8.65;;;1.00;89.00;;;;;;4820211;29;20059;-71
2022/02/26 05:39:28;;;;;;;33.90;7.25;;;0.90;89.10;;;;;;4805806;29;20051;-71
2022/02/26 05:41:55;;;;;;;31.33;7.93;;;0.80;89.20;;;;;;4806216;29;20066;-71
2022/02/26 05:44:26;;;;;;;35.92;7.53;;;0.80;89.20;;;;;;4806005;29;20055;-71
2022/02/26 05:46:55;;;;;;;31.80;7.38;;;0.70;89.30;;;;;;4804880;29;20058;-71
2022/02/26 05:49:24;;;;;;;33.35;8.38;;;0.70;89.40;;;;;;4806012;29;20066;-71
2022/02/26 05:51:51;;;;;;;36.78;8.98;;;0.60;89.30;;;;;;4805728;29;20054;-71
2022/02/26 05:54:19;;;;;;;32.85;8.13;;;0.50;89.30;;;;;;4805749;29;20059;-71
2022/02/26 05:56:47;;;;;;;37.60;8.35;;;0.50;89.40;;;;;;4804850;29;20053;-71
2022/02/26 05:59:15;;;;;;;32.03;8.65;;;0.40;89.40;;;;;;4805923;29;20485;-71
2022/02/26 06:01:43;;;;;;;42.35;10.02;;;0.40;89.50;;;;;;4805482;29;20051;-71
2022/02/26 06:04:10;;;;;;;36.20;9.02;;;0.30;89.60;;;;;;4805609;29;20055;-71
2022/02/26 06:06:38;;;;;;;30.23;9.02;;;0.30;89.70;;;;;;4805770;29;20058;-71
2022/02/26 06:09:05;;;;;;;52.22;10.02;;;0.30;89.80;;;;;;4805679;29;20040;-71
2022/02/26 06:11:33;;;;;;;39.33;9.20;;;0.30;89.90;;;;;;4805555;29;20429;-71
2022/02/26 06:14:01;;;;;;;44.00;10.77;;;0.20;89.90;;;;;;4805740;29;20058;-70
2022/02/26 06:16:28;;;;;;;50.53;12.25;;;0.20;89.90;;;;;;4805514;29;20062;-71
2022/02/26 06:18:56;;;;;;;46.28;11.48;;;0.20;90.00;;;;;;4805629;29;20059;-71
2022/02/26 06:21:24;;;;;;;46.45;11.77;;;0.30;90.00;;;;;;4804396;29;20058;-71
2022/02/26 06:23:51;;;;;;;39.47;11.60;;;0.30;90.00;;;;;;4805524;29;20057;-71
2022/02/26 06:26:19;;;;;;;38.83;11.95;;;0.30;89.90;;;;;;4805534;29;20051;-71
2022/02/26 06:28:46;;;;;;;49.08;11.20;;;0.30;89.90;;;;;;4806855;29;20058;-71
2022/02/26 06:31:14;;;;;;;47.72;12.15;;;0.30;89.80;;;;;;4819271;29;20055;-71
2022/02/26 06:33:42;;;;;;;40.15;11.63;;;0.40;89.80;;;;;;4805644;29;20055;-71
2022/02/26 06:36:09;;;;;;;68.65;13.80;;;0.30;89.80;;;;;;4805338;29;20047;-72
2022/02/26 06:38:37;;;;;;;55.40;12.75;;;0.40;89.90;;;;;;4804169;29;20058;-72
2022/02/26 06:41:05;;;;;;;55.58;13.50;;;0.50;89.90;;;;;;4804698;29;20066;-71
2022/02/26 06:43:32;;;;;;;52.95;13.27;;;0.50;89.90;;;;;;4805106;29;20576;-71
2022/02/26 06:46:00;;;;;;;45.28;12.93;;;0.50;89.90;;;;;;4804034;29;20488;-71
2022/02/26 06:48:29;;;;;;;56.92;13.55;;;0.50;89.90;;;;;;4805345;29;20465;-71
2022/02/26 06:50:57;;;;;;;48.45;12.65;;;0.60;89.90;;;;;;4818126;29;20066;-72
2022/02/26 06:53:24;;;;;;;50.33;12.65;;;0.60;89.90;;;;;;4805065;29;20058;-71
2022/02/26 06:55:52;;;;;;;61.30;12.60;;;0.70;90.00;;;;;;4805262;29;20058;-70
2022/02/26 06:58:20;;;;;;;42.95;10.93;;;0.70;90.10;;;;;;4805166;29;20061;-71
2022/02/26 07:00:47;;;;;;;61.33;13.18;;;0.80;90.10;;;;;;4804682;29;20493;-71
2022/02/26 07:03:15;;;;;;;54.78;12.68;;;0.90;90.10;;;;;;4819030;29;20074;-71
2022/02/26 07:05:43;;;;;;;46.53;13.40;;;0.90;90.00;;;;;;4805160;29;20051;-72
2022/02/26 07:08:11;;;;;;;56.85;13.20;;;1.00;90.00;;;;;;4803746;29;20067;-71
2022/02/26 07:10:38;;;;;;;45.55;11.23;;;1.00;90.00;;;;;;4804811;29;20059;-71
2022/02/26 07:13:06;;;;;;;53.08;11.48;;;1.00;90.00;;;;;;4820474;29;20054;-72
2022/02/26 07:15:35;;;;;;;49.35;11.32;;;1.00;90.10;;;;;;4808291;29;20059;-72
2022/02/26 07:18:03;;;;;;;50.00;12.07;;;1.00;90.20;;;;;;4807540;29;20248;-71
2022/02/26 07:20:30;;;;;;;44.38;11.35;;;1.00;90.20;;;;;;4808683;29;20050;-71
2022/02/26 07:22:58;;;;;;;50.72;11.93;;;1.00;90.20;;;;;;4821890;29;20055;-71
2022/02/26 07:25:28;;;;;;;41.35;11.10;;;1.00;90.30;;;;;;4808312;29;20409;-71
2022/02/26 07:27:59;;;;;;;44.05;11.52;;;1.00;90.40;;;;;;4820354;29;20509;-72
2022/02/26 07:30:27;;;;;;;48.72;10.77;;;1.00;90.30;;;;;;4807028;29;20073;-72
2022/02/26 07:32:55;;;;;;;46.13;10.55;;;1.00;90.40;;;;;;4821405;29;20059;-72
2022/02/26 07:35:23;;;;;;;36.15;8.73;;;1.10;90.40;;;;;;4808162;29;20425;-71
2022/02/26 07:37:51;;;;;;;52.78;9.98;;;1.10;90.50;;;;;;4808503;29;20050;-71
2022/02/26 07:40:18;;;;;;;46.72;10.15;;;1.10;90.50;;;;;;4808031;29;20079;-71
2022/02/26 07:42:48;;;;;;;46.72;8.57;;;1.20;90.50;;;;;;4807778;29;20062;-71
2022/02/26 07:45:16;;;;;;;37.28;8.63;;;1.20;90.40;;;;;;4807970;29;20065;-71
2022/02/26 07:47:47;;;;;;;50.47;10.13;;;1.30;90.50;;;;;;4806822;29;20429;-71
2022/02/26 07:50:15;;;;;;;39.40;9.05;;;1.30;90.50;;;;;;4807744;29;20429;-70
2022/02/26 07:52:43;;;;;;;36.03;9.15;;;1.30;90.50;;;;;;4807718;29;20043;-72
2022/02/26 07:55:11;;;;;;;43.47;10.70;;;1.30;90.40;;;;;;4807925;29;20050;-71
2022/02/26 07:57:38;;;;;;;32.20;7.68;;;1.30;90.50;;;;;;4807888;29;20072;-71
2022/02/26 08:00:08;;;;;;;31.75;8.20;;;1.40;90.50;;;;;;4806634;29;20059;-72
2022/02/26 08:02:36;;;;;;;40.50;8.43;;;1.50;90.60;;;;;;4806745;29;20051;-72
2022/02/26 08:05:05;;;;;;;33.67;6.43;;;1.50;90.50;;;;;;4807699;29;20074;-72
2022/02/26 08:07:33;;;;;;;31.10;5.90;;;1.60;90.50;;;;;;4806553;29;20308;-71
2022/02/26 08:10:02;;;;;;;37.10;5.15;;;1.80;90.60;;;;;;4791332;29;20410;-71
2022/02/26 08:12:31;;;;;;;28.73;5.57;;;1.80;90.60;;;;;;4807534;29;20058;-71
2022/02/26 08:14:58;;;;;;;31.52;4.78;;;1.90;90.60;;;;;;4807795;29;20066;-71
2022/02/26 08:17:26;;;;;;;24.95;4.60;;;2.00;90.50;;;;;;4807572;29;20047;-71
2022/02/26 08:19:55;;;;;;;41.05;4.82;;;2.10;90.50;;;;;;4806783;29;20058;-71
2022/02/26 08:22:22;;;;;;;35.28;4.57;;;2.30;90.40;;;;;;4807551;29;20054;-71
2022/02/26 08:24:50;;;;;;;20.33;3.78;;;2.30;90.30;;;;;;4806705;29;20062;-71
2022/02/26 08:27:18;;;;;;;26.10;4.38;;;2.40;90.30;;;;;;4808063;29;20164;-69
2022/02/26 08:29:45;;;;;;;25.58;4.35;;;2.50;90.10;;;;;;4807442;29;20066;-70
2022/02/26 08:32:13;;;;;;;25.30;3.95;;;2.70;90.00;;;;;;4806846;29;20078;-70
2022/02/26 08:34:41;;;;;;;25.05;4.03;;;2.80;89.90;;;;;;4807266;29;20070;-69
2022/02/26 08:37:09;;;;;;;24.63;4.10;;;2.80;89.80;;;;;;4809775;29;20203;-71
2022/02/26 08:39:36;;;;;;;18.65;4.25;;;3.00;89.70;;;;;;4791740;29;20059;-72
2022/02/26 08:42:05;;;;;;;24.50;4.63;;;3.10;89.50;;;;;;4807194;29;20063;-71
2022/02/26 08:44:34;;;;;;;29.38;4.57;;;3.20;89.40;;;;;;4807243;29;20050;-71
2022/02/26 08:47:03;;;;;;;28.02;5.28;;;3.30;89.20;;;;;;4807259;29;20055;-71
2022/02/26 08:49:31;;;;;;;24.85;5.50;;;3.30;89.00;;;;;;4806689;29;20061;-71
2022/02/26 08:52:00;;;;;;;33.50;5.15;;;3.40;89.00;;;;;;4806680;29;20059;-71
2022/02/26 08:54:30;;;;;;;26.35;4.75;;;3.50;88.80;;;;;;4805590;29;20055;-71
2022/02/26 08:56:58;;;;;;;21.00;4.15;;;3.70;88.70;;;;;;4807209;29;20050;-71
2022/02/26 08:59:25;;;;;;;24.80;4.50;;;3.90;88.60;;;;;;4806841;29;20051;-71
2022/02/26 09:01:54;;;;;;;23.98;3.95;;;4.00;88.40;;;;;;4810270;29;20405;-71
2022/02/26 09:04:22;;;;;;;18.73;3.95;;;4.30;88.10;;;;;;4805431;29;20050;-71
2022/02/26 09:06:50;;;;;;;13.55;3.20;;;4.50;87.80;;;;;;4805538;29;20412;-71
2022/02/26 09:09:17;;;;;;;19.25;3.78;;;4.80;87.40;;;;;;4805543;29;20047;-71
2022/02/26 09:11:45;;;;;;;31.10;4.47;;;4.90;87.00;;;;;;4806616;29;20417;-71
2022/02/26 09:14:14;;;;;;;24.58;3.55;;;5.10;86.40;;;;;;4806452;29;20059;-71
2022/02/26 09:16:41;;;;;;;26.48;3.33;;;5.30;86.10;;;;;;4806081;29;20401;-72
2022/02/26 09:19:12;;;;;;;17.80;2.72;;;5.40;85.80;;;;;;4806359;29;20087;-71
2022/02/26 09:21:40;;;;;;;14.23;3.45;;;5.60;85.50;;;;;;4804516;29;20066;-72
2022/02/26 09:24:08;;;;;;;18.65;3.50;;;5.70;85.30;;;;;;4804868;29;20084;-71
2022/02/26 09:26:36;;;;;;;24.55;3.80;;;5.80;85.00;;;;;;4804984;29;20442;-71
2022/02/26 09:29:03;;;;;;;22.92;3.40;;;6.00;84.40;;;;;;4805893;29;20417;-71
2022/02/26 09:31:31;;;;;;;24.80;3.78;;;6.10;84.00;;;;;;4805972;29;20095;-71
2022/02/26 09:33:59;;;;;;;23.63;4.03;;;6.20;83.40;;;;;;4806175;29;20055;-71
2022/02/26 09:36:27;;;;;;;22.08;3.65;;;6.30;83.10;;;;;;4805444;29;20046;-71
2022/02/26 09:38:54;;;;;;;22.33;3.67;;;6.30;82.90;;;;;;4804818;29;20059;-71
2022/02/26 09:41:22;;;;;;;28.13;3.85;;;6.40;82.90;;;;;;4806068;29;20409;-71
2022/02/26 09:43:50;;;;;;;27.80;4.15;;;6.50;82.90;;;;;;4805994;29;20066;-71
2022/02/26 09:46:23;;;;;;;30.40;3.92;;;6.60;82.70;;;;;;4805856;29;20062;-71
2022/02/26 09:48:51;;;;;;;24.40;4.28;;;6.60;82.60;;;;;;4805145;29;20050;-70
2022/02/26 09:51:20;;;;;;;24.52;3.80;;;6.80;82.30;;;;;;4805696;29;20055;-71
2022/02/26 09:53:49;;;;;;;26.95;3.63;;;7.00;82.00;;;;;;4804533;29;20059;-71
2022/02/26 09:56:17;;;;;;;24.30;4.15;;;7.10;81.90;;;;;;4805467;29;20051;-71
2022/02/26 09:58:45;;;;;;;21.05;3.53;;;7.20;81.60;;;;;;4804120;29;20473;-70
2022/02/26 10:01:12;;;;;;;23.95;4.22;;;7.30;81.50;;;;;;4804656;29;20065;-71
2022/02/26 10:03:41;;;;;;;26.35;4.47;;;7.40;81.30;;;;;;4796778;29;20417;-71
2022/02/26 10:06:12;;;;;;;26.10;4.05;;;7.40;81.20;;;;;;4796292;29;20074;-71
2022/02/26 10:08:49;;;;;;;14.93;3.65;;;7.40;81.00;;;;;;4809108;29;20062;-71
2022/02/26 10:11:43;;;;;;;32.22;4.15;;;7.30;81.10;;;;;;4811912;29;20058;-71
2022/02/26 10:14:17;;;;;;;23.42;3.53;;;7.30;80.90;;;;;;4793833;29;20063;-70
2022/02/26 10:17:00;;;;;;;24.88;4.10;;;7.30;80.90;;;;;;4795828;29;20043;-70
2022/02/26 10:19:34;;;;;;;23.35;3.35;;;7.30;81.00;;;;;;4801050;29;20051;-70
2022/02/26 10:22:07;;;;;;;19.17;3.67;;;7.40;81.00;;;;;;4795478;29;20054;-71
2022/02/26 10:24:37;;;;;;;20.55;3.42;;;7.50;81.10;;;;;;4797677;29;20055;-71
2022/02/26 10:27:09;;;;;;;26.40;3.40;;;7.60;80.80;;;;;;4796744;29;20055;-72
2022/02/26 10:29:39;;;;;;;23.38;3.25;;;7.70;80.90;;;;;;4797080;29;20501;-71
2022/02/26 10:32:08;;;;;;;22.05;3.45;;;7.80;80.20;;;;;;4795995;29;20058;-71
2022/02/26 10:34:38;;;;;;;22.10;3.22;;;7.80;80.00;;;;;;4795155;29;20063;-71
2022/02/26 10:37:07;;;;;;;19.20;3.72;;;7.80;80.00;;;;;;4796315;29;20062;-71
2022/02/26 10:39:43;;;;;;;23.73;3.65;;;7.90;79.50;;;;;;4796747;29;20055;-72
2022/02/26 10:42:29;;;;;;;21.58;3.90;;;8.00;78.70;;;;;;4796906;29;20498;-70
2022/02/26 10:45:08;;;;;;;18.73;2.80;;;8.20;78.00;;;;;;4799114;29;21546;-71
2022/02/26 10:47:41;;;;;;;26.35;3.45;;;8.30;77.80;;;;;;4796681;29;20054;-71
2022/02/26 10:50:18;;;;;;;26.35;3.95;;;8.30;77.20;;;;;;4796010;29;20528;-71
2022/02/26 10:53:05;;;;;;;12.35;1.95;;;8.40;76.80;;;;;;4796779;29;20512;-71
2022/02/26 10:55:52;;;;;;;17.83;2.05;;;8.40;75.90;;;;;;4810147;29;20441;-71
2022/02/26 10:58:22;;;;;;;15.05;2.42;;;8.40;76.10;;;;;;4796520;29;20046;-71
2022/02/26 11:00:54;;;;;;;21.30;3.28;;;8.40;75.80;;;;;;4794394;29;20047;-71
2022/02/26 11:03:22;;;;;;;29.80;3.55;;;8.50;75.90;;;;;;4793823;29;20060;-71
2022/02/26 11:05:53;;;;;;;15.15;2.13;;;8.50;75.50;;;;;;4795661;29;20043;-71
2022/02/26 11:08:22;;;;;;;23.25;3.22;;;8.50;74.30;;;;;;4795346;29;20390;-71
2022/02/26 11:10:52;;;;;;;24.05;2.80;;;8.50;74.40;;;;;;4795691;29;20043;-70
2022/02/26 11:13:21;;;;;;;24.75;3.50;;;8.50;74.60;;;;;;4794758;29;20081;-71
2022/02/26 11:15:52;;;;;;;22.65;3.28;;;8.60;75.00;;;;;;4805414;29;20528;-71
2022/02/26 11:18:21;;;;;;;21.13;3.30;;;8.80;74.20;;;;;;4803895;29;20054;-71
2022/02/26 11:20:49;;;;;;;18.52;3.17;;;8.90;74.00;;;;;;4804954;29;20058;-71
2022/02/26 11:23:17;;;;;;;16.77;2.80;;;9.00;73.10;;;;;;4804885;29;20062;-71
2022/02/26 11:25:46;;;;;;;22.40;3.35;;;9.00;72.90;;;;;;4803411;29;20417;-71
2022/02/26 11:28:16;;;;;;;13.70;2.70;;;8.90;72.40;;;;;;4804089;29;20055;-71
2022/02/26 11:30:55;;;;;;;21.05;3.38;;;8.90;72.70;;;;;;4804840;29;20055;-71
2022/02/26 11:33:23;;;;;;;20.88;3.28;;;8.90;73.20;;;;;;4804929;29;20051;-71
2022/02/26 11:35:52;;;;;;;20.48;3.65;;;8.90;73.20;;;;;;4804514;29;20050;-70
2022/02/26 11:38:22;;;;;;;13.25;2.28;;;8.90;72.90;;;;;;4805185;29;20046;-70
2022/02/26 11:41:26;;;;;;;19.73;2.92;;;9.00;72.80;;;;;;4804026;29;20058;-70
2022/02/26 11:43:56;;;;;;;23.02;3.35;;;9.00;72.40;;;;;;4803608;29;20061;-70
2022/02/26 11:46:26;;;;;;;25.50;3.45;;;9.00;71.80;;;;;;4804835;29;20056;-70
2022/02/26 11:48:56;;;;;;;13.80;3.17;;;9.10;71.90;;;;;;4803441;29;20046;-70
2022/02/26 11:51:35;;;;;;;22.48;4.00;;;9.20;71.70;;;;;;4804588;29;20070;-70
2022/02/26 11:54:07;;;;;;;21.52;3.65;;;9.20;72.00;;;;;;4804485;29;20054;-70
2022/02/26 11:56:48;;;;;;;18.23;3.08;;;9.30;71.20;;;;;;4804469;29;20050;-70
2022/02/26 11:59:16;;;;;;;12.93;1.92;;;9.30;71.90;;;;;;4806001;29;20067;-70
2022/02/26 12:02:08;;;;;;;18.88;2.75;;;9.60;69.90;;;;;;4795923;29;20046;-71
2022/02/26 12:04:42;;;;;;;21.02;3.42;;;9.60;70.00;;;;;;4788952;30;20074;-70
2022/02/26 12:07:10;;;;;;;21.05;3.17;;;9.90;70.20;;;;;;4789887;30;20516;-72
2022/02/26 12:10:03;;;;;;;20.55;2.97;;;10.20;69.40;;;;;;4788061;30;20059;-71
2022/02/26 12:12:39;;;;;;;17.58;3.58;;;10.60;68.80;;;;;;4790221;30;20393;-72
2022/02/26 12:15:19;;;;;;;14.13;2.83;;;10.90;67.20;;;;;;4789805;29;20059;-73
2022/02/26 12:17:53;;;;;;;18.20;2.90;;;11.30;66.50;;;;;;4790060;29;20504;-71
2022/02/26 12:20:29;;;;;;;11.05;2.40;;;11.50;64.70;;;;;;4789821;29;20062;-72
2022/02/26 12:23:14;;;;;;;48.38;5.72;;;11.50;60.50;;;;;;4789653;30;20489;-72
2022/02/26 12:25:44;;;;;;;16.52;3.05;;;11.10;61.70;;;;;;4789422;30;20402;-72
2022/02/26 12:28:15;;;;;;;13.30;2.58;;;10.80;62.50;;;;;;4788956;29;20079;-70
2022/02/26 12:30:59;;;;;;;20.30;2.28;;;10.90;63.00;;;;;;4789449;30;20058;-71
2022/02/26 12:33:27;;;;;;;19.95;3.55;;;11.20;60.30;;;;;;4789416;30;20136;-70
2022/02/26 12:36:27;;;;;;;36.70;7.60;;;11.30;61.00;;;;;;4789299;29;20500;-70
2022/02/26 12:38:59;;;;;;;15.63;3.05;;;11.60;60.80;;;;;;4759366;29;20058;-70
2022/02/26 12:41:35;;;;;;;21.35;4.70;;;11.80;61.30;;;;;;4802922;29;20051;-70
2022/02/26 12:44:05;;;;;;;16.85;3.38;;;12.00;59.70;;;;;;4788145;30;20058;-70
2022/02/26 12:46:33;;;;;;;21.75;3.88;;;12.30;59.00;;;;;;4789216;29;20059;-70
2022/02/26 12:49:04;;;;;;;9.77;2.22;;;12.60;57.80;;;;;;4788439;30;20055;-70
2022/02/26 12:51:33;;;;;;;11.90;2.38;;;12.90;55.60;;;;;;4787682;30;20056;-70
2022/02/26 12:54:01;;;;;;;19.05;2.60;;;13.10;54.70;;;;;;4801686;29;20491;-70
2022/02/26 12:56:34;;;;;;;15.65;2.28;;;13.30;55.20;;;;;;4789078;30;20051;-70
2022/02/26 12:59:12;;;;;;;13.50;3.00;;;13.70;53.90;;;;;;4788673;29;20052;-71